sensor_id;sensor_type;location;lat;lon;timestamp;pressure;altitude;pressure_sealevel;temperature;humidity
84673;BME280;74899;42.256;23.284;2024-03-17T00:01:11;88796.00;;;-0.83;89.17
84673;BME280;74899;42.256;23.284;2024-03-17T00:03:37;88797.13;;;-0.99;89.42
84673;BME280;74899;42.256;23.284;2024-03-17T00:06:03;88804.72;;;-0.99;88.87
84673;BME280;74899;42.256;23.284;2024-03-17T00:08:28;88797.91;;;-0.92;90.18
84673;BME280;74899;42.256;23.284;2024-03-17T00:10:54;88806.09;;;-0.96;88.99
84673;BME280;74899;42.256;23.284;2024-03-17T00:13:23;88800.06;;;-0.95;90.25
84673;BME280;74899;42.256;23.284;2024-03-17T00:15:50;88808.63;;;-0.96;90.37
84673;BME280;74899;42.256;23.284;2024-03-17T00:18:16;88805.72;;;-0.93;89.32
84673;BME280;74899;42.256;23.284;2024-03-17T00:20:43;88798.50;;;-0.96;89.03
84673;BME280;74899;42.256;23.284;2024-03-17T00:23:09;88800.66;;;-0.86;90.32
84673;BME280;74899;42.256;23.284;2024-03-17T00:25:38;88807.47;;;-0.94;88.53
84673;BME280;74899;42.256;23.284;2024-03-17T00:28:04;88791.88;;;-1.04;90.28
84673;BME280;74899;42.256;23.284;2024-03-17T00:30:30;88787.59;;;-0.97;89.31
84673;BME280;74899;42.256;23.284;2024-03-17T00:32:56;88793.84;;;-0.99;89.79
84673;BME280;74899;42.256;23.284;2024-03-17T00:35:23;88790.72;;;-1.01;89.58
84673;BME280;74899;42.256;23.284;2024-03-17T00:37:50;88774.53;;;-1.13;89.58
84673;BME280;74899;42.256;23.284;2024-03-17T00:40:17;88794.41;;;-1.04;90.14
84673;BME280;74899;42.256;23.284;2024-03-17T00:42:43;88793.84;;;-0.93;89.66
84673;BME280;74899;42.256;23.284;2024-03-17T00:45:10;88786.81;;;-0.97;90.50
84673;BME280;74899;42.256;23.284;2024-03-17T00:47:37;88795.59;;;-0.86;91.03
84673;BME280;74899;42.256;23.284;2024-03-17T00:50:03;88787.41;;;-0.88;88.84
84673;BME280;74899;42.256;23.284;2024-03-17T00:52:30;88789.94;;;-0.88;88.96
84673;BME280;74899;42.256;23.284;2024-03-17T00:54:56;88782.91;;;-1.06;89.90
84673;BME280;74899;42.256;23.284;2024-03-17T00:57:22;88782.91;;;-1.00;89.01
84673;BME280;74899;42.256;23.284;2024-03-17T00:59:47;88775.75;;;-0.96;90.18
84673;BME280;74899;42.256;23.284;2024-03-17T01:02:16;88785.88;;;-0.89;90.10
84673;BME280;74899;42.256;23.284;2024-03-17T01:04:43;88786.25;;;-0.93;89.66
84673;BME280;74899;42.256;23.284;2024-03-17T01:07:10;88784.66;;;-1.00;88.62
84673;BME280;74899;42.256;23.284;2024-03-17T01:09:36;88772.75;;;-1.20;90.07
84673;BME280;74899;42.256;23.284;2024-03-17T01:12:02;88781.31;;;-1.21;90.64
84673;BME280;74899;42.256;23.284;2024-03-17T01:14:29;88780.50;;;-1.28;90.93
84673;BME280;74899;42.256;23.284;2024-03-17T01:16:56;88780.13;;;-1.25;89.79
84673;BME280;74899;42.256;23.284;2024-03-17T01:19:23;88779.75;;;-1.28;91.09
84673;BME280;74899;42.256;23.284;2024-03-17T01:21:52;88782.88;;;-1.20;89.94
84673;BME280;74899;42.256;23.284;2024-03-17T01:24:18;88771.94;;;-1.27;90.10
84673;BME280;74899;42.256;23.284;2024-03-17T01:26:46;88778.38;;;-1.24;89.14
84673;BME280;74899;42.256;23.284;2024-03-17T01:29:11;88770.81;;;-1.18;91.42
84673;BME280;74899;42.256;23.284;2024-03-17T01:31:37;88778.81;;;-1.14;90.89
84673;BME280;74899;42.256;23.284;2024-03-17T01:34:03;88767.88;;;-1.15;89.85
84673;BME280;74899;42.256;23.284;2024-03-17T01:36:29;88761.28;;;-1.16;88.96
84673;BME280;74899;42.256;23.284;2024-03-17T01:38:54;88774.38;;;-0.99;87.93
84673;BME280;74899;42.256;23.284;2024-03-17T01:41:22;88767.75;;;-0.86;88.54
84673;BME280;74899;42.256;23.284;2024-03-17T01:43:48;88776.72;;;-0.90;87.66
84673;BME280;74899;42.256;23.284;2024-03-17T01:46:16;88781.03;;;-0.78;88.21
84673;BME280;74899;42.256;23.284;2024-03-17T01:48:43;88787.41;;;-0.88;89.48
84673;BME280;74899;42.256;23.284;2024-03-17T01:51:10;88774.75;;;-1.02;89.38
84673;BME280;74899;42.256;23.284;2024-03-17T01:53:39;88784.28;;;-0.97;89.71
84673;BME280;74899;42.256;23.284;2024-03-17T01:56:05;88780.00;;;-0.97;89.50
84673;BME280;74899;42.256;23.284;2024-03-17T01:58:34;88779.44;;;-0.92;88.86
84673;BME280;74899;42.256;23.284;2024-03-17T02:01:00;88776.31;;;-0.94;89.67
84673;BME280;74899;42.256;23.284;2024-03-17T02:03:26;88778.84;;;-0.94;89.95
84673;BME280;74899;42.256;23.284;2024-03-17T02:05:52;88780.19;;;-0.98;88.88
84673;BME280;74899;42.256;23.284;2024-03-17T02:08:18;88772.41;;;-1.03;90.00
84673;BME280;74899;42.256;23.284;2024-03-17T02:10:44;88758.59;;;-1.07;89.35
84673;BME280;74899;42.256;23.284;2024-03-17T02:13:10;88768.72;;;-1.01;90.82
84673;BME280;74899;42.256;23.284;2024-03-17T02:15:36;88771.81;;;-1.05;89.96
84673;BME280;74899;42.256;23.284;2024-03-17T02:18:03;88771.63;;;-1.04;90.29
84673;BME280;74899;42.256;23.284;2024-03-17T02:20:29;88768.31;;;-1.04;90.96
84673;BME280;74899;42.256;23.284;2024-03-17T02:23:13;88768.13;;;-1.03;90.04
84673;BME280;74899;42.256;23.284;2024-03-17T02:25:39;88766.00;;;-0.93;89.07
84673;BME280;74899;42.256;23.284;2024-03-17T02:28:05;88760.94;;;-0.99;89.29
84673;BME280;74899;42.256;23.284;2024-03-17T02:30:31;88757.44;;;-0.98;89.62
84673;BME280;74899;42.256;23.284;2024-03-17T02:32:57;88766.44;;;-0.76;89.97
84673;BME280;74899;42.256;23.284;2024-03-17T02:35:24;88761.53;;;-0.71;90.80
84673;BME280;74899;42.256;23.284;2024-03-17T02:37:50;88763.88;;;-0.62;89.65
84673;BME280;74899;42.256;23.284;2024-03-17T02:40:16;88762.53;;;-0.58;90.81
84673;BME280;74899;42.256;23.284;2024-03-17T02:42:43;88754.38;;;-0.67;88.65
84673;BME280;74899;42.256;23.284;2024-03-17T02:45:13;88767.19;;;-0.75;88.76
84673;BME280;74899;42.256;23.284;2024-03-17T02:47:39;88754.53;;;-0.69;89.35
84673;BME280;74899;42.256;23.284;2024-03-17T02:50:07;88761.53;;;-0.71;89.02
84673;BME280;74899;42.256;23.284;2024-03-17T02:52:33;88759.78;;;-0.83;89.72
84673;BME280;74899;42.256;23.284;2024-03-17T02:54:59;88764.63;;;-0.88;90.34
84673;BME280;74899;42.256;23.284;2024-03-17T02:57:25;88752.75;;;-0.88;89.33
84673;BME280;74899;42.256;23.284;2024-03-17T02:59:55;88745.00;;;-0.93;89.26
84673;BME280;74899;42.256;23.284;2024-03-17T03:02:22;88760.34;;;-0.88;90.64
84673;BME280;74899;42.256;23.284;2024-03-17T03:04:48;88757.47;;;-0.65;89.37
84673;BME280;74899;42.256;23.284;2024-03-17T03:07:14;88753.75;;;-0.56;89.09
84673;BME280;74899;42.256;23.284;2024-03-17T03:09:40;88759.22;;;-0.59;89.59
84673;BME280;74899;42.256;23.284;2024-03-17T03:12:06;88754.75;;;-0.63;89.39
84673;BME280;74899;42.256;23.284;2024-03-17T03:14:33;88748.72;;;-0.69;88.94
84673;BME280;74899;42.256;23.284;2024-03-17T03:16:59;88753.00;;;-0.70;89.52
84673;BME280;74899;42.256;23.284;2024-03-17T03:19:28;88754.94;;;-0.65;88.64
84673;BME280;74899;42.256;23.284;2024-03-17T03:21:57;88760.00;;;-0.58;89.71
84673;BME280;74899;42.256;23.284;2024-03-17T03:24:23;88742.88;;;-0.63;89.23
84673;BME280;74899;42.256;23.284;2024-03-17T03:26:49;88758.25;;;-0.51;88.08
84673;BME280;74899;42.256;23.284;2024-03-17T03:29:15;88754.56;;;-0.55;90.07
84673;BME280;74899;42.256;23.284;2024-03-17T03:31:42;88750.66;;;-0.58;89.91
84673;BME280;74899;42.256;23.284;2024-03-17T03:34:08;88758.63;;;-0.48;89.04
84673;BME280;74899;42.256;23.284;2024-03-17T03:36:35;88755.34;;;-0.55;88.64
84673;BME280;74899;42.256;23.284;2024-03-17T03:39:02;88756.88;;;-0.54;89.97
84673;BME280;74899;42.256;23.284;2024-03-17T03:41:30;88746.38;;;-0.57;90.52
84673;BME280;74899;42.256;23.284;2024-03-17T03:43:55;88756.28;;;-0.36;90.07
84673;BME280;74899;42.256;23.284;2024-03-17T03:46:21;88770.72;;;-0.23;90.82
84673;BME280;74899;42.256;23.284;2024-03-17T03:48:47;88767.97;;;-0.15;89.15
84673;BME280;74899;42.256;23.284;2024-03-17T03:51:13;88756.09;;;-0.14;90.30
84673;BME280;74899;42.256;23.284;2024-03-17T03:53:39;88754.53;;;-0.15;89.55
84673;BME280;74899;42.256;23.284;2024-03-17T03:56:06;88761.75;;;-0.26;88.89
84673;BME280;74899;42.256;23.284;2024-03-17T03:58:40;88756.09;;;-0.48;90.13
84673;BME280;74899;42.256;23.284;2024-03-17T04:01:09;88762.75;;;-0.40;90.42
84673;BME280;74899;42.256;23.284;2024-03-17T04:03:37;88769.16;;;-0.44;89.73
84673;BME280;74899;42.256;23.284;2024-03-17T04:06:04;88765.84;;;-0.44;90.12
84673;BME280;74899;42.256;23.284;2024-03-17T04:08:31;88773.44;;;-0.51;90.46
84673;BME280;74899;42.256;23.284;2024-03-17T04:10:57;88773.03;;;-0.68;90.42
84673;BME280;74899;42.256;23.284;2024-03-17T04:13:23;88778.69;;;-0.73;90.46
84673;BME280;74899;42.256;23.284;2024-03-17T04:15:49;88776.94;;;-0.79;90.97
84673;BME280;74899;42.256;23.284;2024-03-17T04:18:15;88766.59;;;-0.90;90.77
84673;BME280;74899;42.256;23.284;2024-03-17T04:20:42;88778.06;;;-0.88;91.62
84673;BME280;74899;42.256;23.284;2024-03-17T04:23:08;88780.81;;;-0.89;91.16
84673;BME280;74899;42.256;23.284;2024-03-17T04:25:34;88780.59;;;-0.88;91.07
84673;BME280;74899;42.256;23.284;2024-03-17T04:28:00;88783.34;;;-0.89;91.06
84673;BME280;74899;42.256;23.284;2024-03-17T04:30:25;88787.41;;;-0.88;91.78
84673;BME280;74899;42.256;23.284;2024-03-17T04:32:51;88796.19;;;-0.84;91.60
84673;BME280;74899;42.256;23.284;2024-03-17T04:35:17;88794.06;;;-0.74;92.49
84673;BME280;74899;42.256;23.284;2024-03-17T04:37:43;88792.31;;;-0.74;90.92
84673;BME280;74899;42.256;23.284;2024-03-17T04:40:09;88801.09;;;-0.70;90.85
84673;BME280;74899;42.256;23.284;2024-03-17T04:42:35;88799.91;;;-0.80;91.50
84673;BME280;74899;42.256;23.284;2024-03-17T04:45:01;88809.84;;;-0.72;91.52
84673;BME280;74899;42.256;23.284;2024-03-17T04:47:27;88799.31;;;-0.82;91.27
84673;BME280;74899;42.256;23.284;2024-03-17T04:49:53;88797.16;;;-0.85;90.42
84673;BME280;74899;42.256;23.284;2024-03-17T04:52:19;88804.34;;;-0.82;91.00
84673;BME280;74899;42.256;23.284;2024-03-17T04:54:44;88824.22;;;-0.79;90.52
84673;BME280;74899;42.256;23.284;2024-03-17T04:57:10;88823.28;;;-0.72;91.28
84673;BME280;74899;42.256;23.284;2024-03-17T04:59:35;88820.19;;;-0.60;90.63
84673;BME280;74899;42.256;23.284;2024-03-17T05:02:01;88823.09;;;-0.63;91.22
84673;BME280;74899;42.256;23.284;2024-03-17T05:04:29;88824.66;;;-0.62;90.83
84673;BME280;74899;42.256;23.284;2024-03-17T05:06:56;88826.41;;;-0.63;91.11
84673;BME280;74899;42.256;23.284;2024-03-17T05:09:22;88825.03;;;-0.59;90.17
84673;BME280;74899;42.256;23.284;2024-03-17T05:11:50;88821.16;;;-0.61;90.27
84673;BME280;74899;42.256;23.284;2024-03-17T05:14:17;88818.59;;;-0.68;90.56
84673;BME280;74899;42.256;23.284;2024-03-17T05:16:45;88825.25;;;-0.60;90.31
84673;BME280;74899;42.256;23.284;2024-03-17T05:19:10;88820.19;;;-0.54;89.40
84673;BME280;74899;42.256;23.284;2024-03-17T05:21:36;88830.13;;;-0.39;88.80
84673;BME280;74899;42.256;23.284;2024-03-17T05:24:02;88812.59;;;-0.47;88.49
84673;BME280;74899;42.256;23.284;2024-03-17T05:26:28;88837.56;;;-0.31;89.60
84673;BME280;74899;42.256;23.284;2024-03-17T05:28:56;88836.78;;;-0.38;89.17
84673;BME280;74899;42.256;23.284;2024-03-17T05:31:22;88832.09;;;-0.34;89.36
84673;BME280;74899;42.256;23.284;2024-03-17T05:33:48;88834.63;;;-0.34;89.87
84673;BME280;74899;42.256;23.284;2024-03-17T05:36:14;88824.50;;;-0.34;88.77
84673;BME280;74899;42.256;23.284;2024-03-17T05:38:40;88834.44;;;-0.26;88.93
84673;BME280;74899;42.256;23.284;2024-03-17T05:41:08;88840.84;;;-0.24;88.72
84673;BME280;74899;42.256;23.284;2024-03-17T05:43:35;88815.94;;;-0.13;88.50
84673;BME280;74899;42.256;23.284;2024-03-17T05:46:03;88830.16;;;-0.06;88.80
84673;BME280;74899;42.256;23.284;2024-03-17T05:48:38;88830.34;;;-0.20;88.12
84673;BME280;74899;42.256;23.284;2024-03-17T05:51:05;88843.22;;;-0.09;88.98
84673;BME280;74899;42.256;23.284;2024-03-17T05:53:31;88828.38;;;-0.12;88.10
84673;BME280;74899;42.256;23.284;2024-03-17T05:56:03;88844.56;;;-0.06;88.21
84673;BME280;74899;42.256;23.284;2024-03-17T05:58:29;88843.59;;;0.02;87.13
84673;BME280;74899;42.256;23.284;2024-03-17T06:00:55;88843.22;;;0.18;87.59
84673;BME280;74899;42.256;23.284;2024-03-17T06:03:21;88848.44;;;0.36;86.45
84673;BME280;74899;42.256;23.284;2024-03-17T06:05:47;88844.47;;;0.67;85.96
84673;BME280;74899;42.256;23.284;2024-03-17T06:08:14;88841.28;;;0.92;85.36
84673;BME280;74899;42.256;23.284;2024-03-17T06:10:47;88840.59;;;1.16;83.38
84673;BME280;74899;42.256;23.284;2024-03-17T06:13:14;88850.47;;;1.38;84.12
84673;BME280;74899;42.256;23.284;2024-03-17T06:15:43;88853.75;;;1.76;82.56
84673;BME280;74899;42.256;23.284;2024-03-17T06:18:11;88850.50;;;2.19;80.02
84673;BME280;74899;42.256;23.284;2024-03-17T06:20:40;88853.38;;;2.55;79.02
84673;BME280;74899;42.256;23.284;2024-03-17T06:23:11;88850.25;;;2.71;79.35
84673;BME280;74899;42.256;23.284;2024-03-17T06:25:44;88854.72;;;3.12;78.39
84673;BME280;74899;42.256;23.284;2024-03-17T06:28:11;88851.31;;;3.37;77.06
84673;BME280;74899;42.256;23.284;2024-03-17T06:30:41;88855.63;;;3.36;76.91
84673;BME280;74899;42.256;23.284;2024-03-17T06:33:12;88851.97;;;3.62;77.10
84673;BME280;74899;42.256;23.284;2024-03-17T06:35:38;88850.41;;;4.03;75.05
84673;BME280;74899;42.256;23.284;2024-03-17T06:38:05;88855.09;;;4.06;74.89
84673;BME280;74899;42.256;23.284;2024-03-17T06:40:37;88854.63;;;3.98;75.79
84673;BME280;74899;42.256;23.284;2024-03-17T06:43:04;88858.00;;;4.10;75.92
84673;BME280;74899;42.256;23.284;2024-03-17T06:45:29;88860.56;;;4.10;75.14
84673;BME280;74899;42.256;23.284;2024-03-17T06:47:57;88857.59;;;4.48;75.31
84673;BME280;74899;42.256;23.284;2024-03-17T06:50:23;88855.50;;;5.04;72.96
84673;BME280;74899;42.256;23.284;2024-03-17T06:52:49;88854.88;;;5.26;72.10
84673;BME280;74899;42.256;23.284;2024-03-17T06:55:15;88867.75;;;5.42;71.51
84673;BME280;74899;42.256;23.284;2024-03-17T06:57:42;88851.94;;;4.93;73.54
84673;BME280;74899;42.256;23.284;2024-03-17T07:00:15;88862.84;;;4.89;74.50
84673;BME280;74899;42.256;23.284;2024-03-17T07:02:42;88865.78;;;5.33;73.38
84673;BME280;74899;42.256;23.284;2024-03-17T07:05:12;88866.06;;;5.88;71.38
84673;BME280;74899;42.256;23.284;2024-03-17T07:07:41;88860.88;;;6.12;71.08
84673;BME280;74899;42.256;23.284;2024-03-17T07:10:07;88865.47;;;6.44;70.04
84673;BME280;74899;42.256;23.284;2024-03-17T07:12:34;88861.88;;;6.78;69.41
84673;BME280;74899;42.256;23.284;2024-03-17T07:15:00;88856.53;;;6.97;69.91
84673;BME280;74899;42.256;23.284;2024-03-17T07:17:26;88860.44;;;7.21;68.99
84673;BME280;74899;42.256;23.284;2024-03-17T07:19:52;88867.44;;;7.26;68.52
84673;BME280;74899;42.256;23.284;2024-03-17T07:22:19;88866.28;;;7.17;68.24
84673;BME280;74899;42.256;23.284;2024-03-17T07:24:46;88862.69;;;7.35;66.13
84673;BME280;74899;42.256;23.284;2024-03-17T07:27:11;88865.47;;;7.33;65.35
84673;BME280;74899;42.256;23.284;2024-03-17T07:29:40;88856.16;;;7.71;61.92
84673;BME280;74899;42.256;23.284;2024-03-17T07:32:06;88860.00;;;7.46;62.49
84673;BME280;74899;42.256;23.284;2024-03-17T07:34:32;88857.41;;;7.68;63.63
84673;BME280;74899;42.256;23.284;2024-03-17T07:36:59;88857.38;;;7.41;62.61
84673;BME280;74899;42.256;23.284;2024-03-17T07:39:31;88864.88;;;7.26;64.81
84673;BME280;74899;42.256;23.284;2024-03-17T07:42:00;88867.34;;;7.21;66.01
84673;BME280;74899;42.256;23.284;2024-03-17T07:44:27;88863.19;;;7.15;66.08
84673;BME280;74899;42.256;23.284;2024-03-17T07:46:58;88850.38;;;7.37;64.92
84673;BME280;74899;42.256;23.284;2024-03-17T07:49:23;88858.50;;;7.29;64.42
84673;BME280;74899;42.256;23.284;2024-03-17T07:51:49;88852.84;;;7.70;62.46
84673;BME280;74899;42.256;23.284;2024-03-17T07:54:15;88852.91;;;8.03;61.06
84673;BME280;74899;42.256;23.284;2024-03-17T07:56:41;88857.28;;;8.29;59.38
84673;BME280;74899;42.256;23.284;2024-03-17T07:59:06;88851.47;;;8.66;56.58
84673;BME280;74899;42.256;23.284;2024-03-17T08:01:37;88849.28;;;8.85;56.51
84673;BME280;74899;42.256;23.284;2024-03-17T08:04:02;88851.44;;;9.03;55.55
84673;BME280;74899;42.256;23.284;2024-03-17T08:06:29;88844.13;;;9.22;54.92
84673;BME280;74899;42.256;23.284;2024-03-17T08:08:55;88841.22;;;9.61;53.85
84673;BME280;74899;42.256;23.284;2024-03-17T08:11:21;88847.50;;;9.28;51.96
84673;BME280;74899;42.256;23.284;2024-03-17T08:13:47;88843.22;;;8.64;52.39
84673;BME280;74899;42.256;23.284;2024-03-17T08:16:13;88842.97;;;7.84;56.13
84673;BME280;74899;42.256;23.284;2024-03-17T08:18:39;88851.03;;;8.20;56.19
84673;BME280;74899;42.256;23.284;2024-03-17T08:21:05;88847.25;;;8.87;53.50
84673;BME280;74899;42.256;23.284;2024-03-17T08:23:33;88840.88;;;9.47;53.73
84673;BME280;74899;42.256;23.284;2024-03-17T08:26:02;88841.09;;;9.93;52.83
84673;BME280;74899;42.256;23.284;2024-03-17T08:28:28;88846.03;;;10.20;53.21
84673;BME280;74899;42.256;23.284;2024-03-17T08:30:56;88852.56;;;10.43;52.02
84673;BME280;74899;42.256;23.284;2024-03-17T08:33:23;88840.72;;;10.48;49.41
84673;BME280;74899;42.256;23.284;2024-03-17T08:38:22;88845.38;;;10.71;47.31
84673;BME280;74899;42.256;23.284;2024-03-17T08:40:50;88839.72;;;10.74;48.70
84673;BME280;74899;42.256;23.284;2024-03-17T08:43:16;88839.19;;;10.87;48.64
84673;BME280;74899;42.256;23.284;2024-03-17T08:45:42;88841.22;;;10.50;48.89
84673;BME280;74899;42.256;23.284;2024-03-17T08:48:09;88837.13;;;10.59;49.48
84673;BME280;74899;42.256;23.284;2024-03-17T08:50:37;88844.59;;;10.71;48.45
84673;BME280;74899;42.256;23.284;2024-03-17T08:53:03;88843.56;;;10.72;48.49
84673;BME280;74899;42.256;23.284;2024-03-17T08:55:29;88840.47;;;10.85;48.19
84673;BME280;74899;42.256;23.284;2024-03-17T08:57:55;88833.81;;;9.75;47.28
84673;BME280;74899;42.256;23.284;2024-03-17T09:00:22;88835.34;;;9.71;44.61
84673;BME280;74899;42.256;23.284;2024-03-17T09:02:47;88842.13;;;9.97;45.79
84673;BME280;74899;42.256;23.284;2024-03-17T09:05:13;88837.75;;;10.03;46.18
84673;BME280;74899;42.256;23.284;2024-03-17T09:07:39;88833.88;;;9.90;44.45
84673;BME280;74899;42.256;23.284;2024-03-17T09:10:05;88844.00;;;9.49;46.56
84673;BME280;74899;42.256;23.284;2024-03-17T09:12:32;88836.16;;;9.82;45.62
84673;BME280;74899;42.256;23.284;2024-03-17T09:14:58;88848.81;;;9.36;45.40
84673;BME280;74899;42.256;23.284;2024-03-17T09:17:23;88840.69;;;9.59;46.75
84673;BME280;74899;42.256;23.284;2024-03-17T09:19:49;88840.78;;;9.85;44.74
84673;BME280;74899;42.256;23.284;2024-03-17T09:22:15;88835.69;;;9.95;45.34
84673;BME280;74899;42.256;23.284;2024-03-17T09:24:41;88837.75;;;9.35;44.79
84673;BME280;74899;42.256;23.284;2024-03-17T09:27:07;88839.94;;;9.64;45.25
84673;BME280;74899;42.256;23.284;2024-03-17T09:29:35;88829.69;;;9.79;45.25
84673;BME280;74899;42.256;23.284;2024-03-17T09:32:00;88839.06;;;10.01;44.48
84673;BME280;74899;42.256;23.284;2024-03-17T09:34:26;88835.28;;;10.44;45.24
84673;BME280;74899;42.256;23.284;2024-03-17T09:36:52;88837.91;;;10.75;44.65
84673;BME280;74899;42.256;23.284;2024-03-17T09:39:17;88837.13;;;10.79;44.34
84673;BME280;74899;42.256;23.284;2024-03-17T09:41:46;88836.09;;;10.80;44.18
84673;BME280;74899;42.256;23.284;2024-03-17T09:44:12;88830.41;;;10.53;44.90
84673;BME280;74899;42.256;23.284;2024-03-17T09:46:41;88832.31;;;9.89;44.78
84673;BME280;74899;42.256;23.284;2024-03-17T09:49:15;88831.19;;;10.48;45.24
84673;BME280;74899;42.256;23.284;2024-03-17T09:51:44;88841.00;;;10.92;44.49
84673;BME280;74899;42.256;23.284;2024-03-17T09:54:19;88836.34;;;11.04;44.06
84673;BME280;74899;42.256;23.284;2024-03-17T09:56:45;88833.22;;;11.23;44.21
84673;BME280;74899;42.256;23.284;2024-03-17T09:59:12;88833.44;;;11.47;44.32
84673;BME280;74899;42.256;23.284;2024-03-17T10:01:38;88826.94;;;11.60;42.82
84673;BME280;74899;42.256;23.284;2024-03-17T10:04:03;88835.97;;;11.62;42.62
84673;BME280;74899;42.256;23.284;2024-03-17T10:06:30;88832.63;;;11.46;43.09
84673;BME280;74899;42.256;23.284;2024-03-17T10:09:00;88834.03;;;11.03;43.50
84673;BME280;74899;42.256;23.284;2024-03-17T10:11:41;88840.97;;;11.07;43.46
84673;BME280;74899;42.256;23.284;2024-03-17T10:14:08;88828.84;;;11.18;42.47
84673;BME280;74899;42.256;23.284;2024-03-17T10:16:36;88836.06;;;11.11;44.28
84673;BME280;74899;42.256;23.284;2024-03-17T10:19:10;88834.94;;;11.58;43.43
84673;BME280;74899;42.256;23.284;2024-03-17T10:21:39;88832.91;;;11.45;44.42
84673;BME280;74899;42.256;23.284;2024-03-17T10:24:25;88844.97;;;11.70;44.24
84673;BME280;74899;42.256;23.284;2024-03-17T10:26:55;88840.47;;;12.11;42.63
84673;BME280;74899;42.256;23.284;2024-03-17T10:31:56;88835.63;;;11.84;43.33
84673;BME280;74899;42.256;23.284;2024-03-17T10:34:23;88835.63;;;11.89;42.29
84673;BME280;74899;42.256;23.284;2024-03-17T10:36:52;88826.59;;;11.81;42.34
84673;BME280;74899;42.256;23.284;2024-03-17T10:39:30;88834.91;;;11.68;42.29
84673;BME280;74899;42.256;23.284;2024-03-17T10:41:57;88818.44;;;11.54;42.56
84673;BME280;74899;42.256;23.284;2024-03-17T10:44:27;88829.91;;;10.81;43.65
84673;BME280;74899;42.256;23.284;2024-03-17T10:46:54;88831.94;;;10.38;44.29
84673;BME280;74899;42.256;23.284;2024-03-17T10:49:33;88837.38;;;10.88;43.57
84673;BME280;74899;42.256;23.284;2024-03-17T10:52:00;88832.44;;;11.32;43.21
84673;BME280;74899;42.256;23.284;2024-03-17T10:54:26;88828.03;;;11.38;44.47
84673;BME280;74899;42.256;23.284;2024-03-17T10:56:55;88832.63;;;11.46;43.58
84673;BME280;74899;42.256;23.284;2024-03-17T10:59:39;88829.56;;;11.34;44.35
84673;BME280;74899;42.256;23.284;2024-03-17T11:02:24;88829.06;;;11.37;43.42
84673;BME280;74899;42.256;23.284;2024-03-17T11:04:55;88833.00;;;10.63;44.47
84673;BME280;74899;42.256;23.284;2024-03-17T11:07:22;88831.44;;;10.98;43.89
84673;BME280;74899;42.256;23.284;2024-03-17T11:09:50;88823.22;;;10.85;43.98
84673;BME280;74899;42.256;23.284;2024-03-17T11:22:49;88830.19;;;9.71;47.99
84673;BME280;74899;42.256;23.284;2024-03-17T11:27:57;88830.66;;;10.46;45.94
84673;BME280;74899;42.256;23.284;2024-03-17T11:38:57;88813.13;;;10.28;44.67
84673;BME280;74899;42.256;23.284;2024-03-17T11:41:45;88819.19;;;9.91;46.18
84673;BME280;74899;42.256;23.284;2024-03-17T11:46:54;88804.28;;;9.98;45.21
84673;BME280;74899;42.256;23.284;2024-03-17T11:51:57;88802.81;;;10.28;45.30
84673;BME280;74899;42.256;23.284;2024-03-17T11:54:27;88811.50;;;10.11;45.06
84673;BME280;74899;42.256;23.284;2024-03-17T11:56:55;88804.63;;;10.27;44.36
84673;BME280;74899;42.256;23.284;2024-03-17T11:59:22;88804.88;;;10.41;44.87
84673;BME280;74899;42.256;23.284;2024-03-17T12:01:52;88800.78;;;10.71;44.50
84673;BME280;74899;42.256;23.284;2024-03-17T12:04:19;88808.00;;;10.69;44.84
84673;BME280;74899;42.256;23.284;2024-03-17T12:06:47;88802.00;;;11.29;43.71
84673;BME280;74899;42.256;23.284;2024-03-17T12:11:40;88782.00;;;12.25;42.08
84673;BME280;74899;42.256;23.284;2024-03-17T12:14:15;88786.41;;;12.93;40.57
84673;BME280;74899;42.256;23.284;2024-03-17T12:16:50;88781.47;;;13.21;40.01
84673;BME280;74899;42.256;23.284;2024-03-17T12:19:18;88781.81;;;13.14;38.41
84673;BME280;74899;42.256;23.284;2024-03-17T12:21:45;88782.00;;;12.25;39.52
84673;BME280;74899;42.256;23.284;2024-03-17T12:24:19;88785.22;;;12.46;41.21
84673;BME280;74899;42.256;23.284;2024-03-17T12:26:46;88785.16;;;12.52;41.23
84673;BME280;74899;42.256;23.284;2024-03-17T12:29:35;88788.72;;;12.21;40.73
84673;BME280;74899;42.256;23.284;2024-03-17T12:32:03;88786.47;;;12.10;40.65
84673;BME280;74899;42.256;23.284;2024-03-17T12:34:32;88783.69;;;11.21;40.89
84673;BME280;74899;42.256;23.284;2024-03-17T12:37:00;88787.63;;;10.67;42.03
84673;BME280;74899;42.256;23.284;2024-03-17T12:39:33;88794.84;;;10.60;43.90
84673;BME280;74899;42.256;23.284;2024-03-17T12:42:06;88795.38;;;10.77;43.63
84673;BME280;74899;42.256;23.284;2024-03-17T12:47:21;88781.97;;;10.65;42.43
84673;BME280;74899;42.256;23.284;2024-03-17T12:49:52;88777.31;;;10.77;42.46
84673;BME280;74899;42.256;23.284;2024-03-17T12:52:23;88773.41;;;10.85;43.36
84673;BME280;74899;42.256;23.284;2024-03-17T12:55:06;88776.28;;;10.37;43.54
84673;BME280;74899;42.256;23.284;2024-03-17T12:58:11;88776.50;;;10.10;44.96
84673;BME280;74899;42.256;23.284;2024-03-17T13:01:06;88782.31;;;9.60;45.63
84673;BME280;74899;42.256;23.284;2024-03-17T13:03:36;88785.13;;;9.63;45.60
84673;BME280;74899;42.256;23.284;2024-03-17T13:06:03;88785.13;;;9.63;45.40
84673;BME280;74899;42.256;23.284;2024-03-17T13:08:31;88782.81;;;9.67;45.09
84673;BME280;74899;42.256;23.284;2024-03-17T13:10:57;88775.72;;;10.05;45.77
84673;BME280;74899;42.256;23.284;2024-03-17T13:13:23;88772.38;;;10.14;45.69
84673;BME280;74899;42.256;23.284;2024-03-17T13:15:49;88771.13;;;10.42;45.40
84673;BME280;74899;42.256;23.284;2024-03-17T13:18:18;88778.59;;;10.64;44.81
84673;BME280;74899;42.256;23.284;2024-03-17T13:20:45;88773.44;;;10.44;43.58
84673;BME280;74899;42.256;23.284;2024-03-17T13:23:11;88761.31;;;10.24;44.55
84673;BME280;74899;42.256;23.284;2024-03-17T13:25:37;88772.69;;;10.54;44.26
84673;BME280;74899;42.256;23.284;2024-03-17T13:28:04;88756.72;;;10.62;43.93
84673;BME280;74899;42.256;23.284;2024-03-17T13:30:32;88761.34;;;10.65;44.25
84673;BME280;74899;42.256;23.284;2024-03-17T13:32:59;88756.16;;;10.85;44.48